WetterOnline ( https://www.wetteronline.ch )

Wetter aktuell Uckermark

Aktuelles Wetter: Grünow (57m)

6-stündlich | Neueste Meldungen
Ortszeit Temperatur Wetter
Di, 02.06. 14:00 25.0° C wolkenlos
Di, 02.06. 8:00 15.1° C wolkenlos
Di, 02.06. 2:00 7.5° C wolkenlos
Mo, 01.06. 20:00 17.5° C wolkenlos
Mo, 01.06. 14:00 20.7° C wolkenlos
Mo, 01.06. 8:00 13.4° C wolkenlos
Mo, 01.06. 2:00 8.6° C wolkenlos
So, 31.05. 20:00 14.6° C wolkenlos
Ortszeit Temperatur Wetter
Di, 02.06. 19:00 22.8° C leicht bewölkt
Di, 02.06. 18:50 22.8° C leicht bewölkt
Di, 02.06. 18:40 23.1° C leicht bewölkt
Di, 02.06. 18:30 23.0° C bewölkt
Di, 02.06. 18:20 23.0° C bewölkt
Di, 02.06. 18:10 23.3° C bewölkt
Di, 02.06. 18:00 24.2° C wolkig
Di, 02.06. 17:30 24.4° C leicht bewölkt
Di, 02.06. 17:00 24.8° C leicht bewölkt
Di, 02.06. 16:30 25.2° C leicht bewölkt
Di, 02.06. 16:00 25.3° C wolkenlos
Ortszeit Relative Feuchte Sichtweite
Di, 02.06. 14:00 34% 55 km
Di, 02.06. 8:00 63% >70 km
Di, 02.06. 2:00 88% 60 km
Mo, 01.06. 20:00 44% 60 km
Mo, 01.06. 14:00 45% 55 km
Mo, 01.06. 8:00 70% 60 km
Mo, 01.06. 2:00 92% 40 km
So, 31.05. 20:00 60% 65 km
Ortszeit Relative Feuchte Sichtweite
Di, 02.06. 19:00 44% 55 km
Di, 02.06. 18:50 44% -
Di, 02.06. 18:40 45% -
Di, 02.06. 18:30 40% 65 km
Di, 02.06. 18:20 40% -
Di, 02.06. 18:10 40% -
Di, 02.06. 18:00 37% 60 km
Di, 02.06. 17:30 37% 55 km
Di, 02.06. 17:00 37% 45 km
Di, 02.06. 16:30 33% 55 km
Di, 02.06. 16:00 33% 65 km
Ortszeit Niederschlagsmenge Niederschlagsart
Di, 02.06. 14:00 0.0 l/m2 in 6 Std. -
Di, 02.06. 8:00 0.0 l/m2 in 12 Std. -
Di, 02.06. 2:00 0.0 l/m2 in 6 Std. -
Mo, 01.06. 20:00 0.0 l/m2 in 12 Std. -
Mo, 01.06. 14:00 0.0 l/m2 in 6 Std. -
Mo, 01.06. 8:00 0.0 l/m2 in 12 Std. -
Mo, 01.06. 2:00 0.0 l/m2 in 6 Std. -
So, 31.05. 20:00 0.0 l/m2 in 12 Std. -
Ortszeit Niederschlagsmenge Niederschlagsart
Di, 02.06. 19:00 0.0 l/m2 in 1 Std. -
Di, 02.06. 18:50 keine Meldung -
Di, 02.06. 18:40 keine Meldung -
Di, 02.06. 18:30 0.0 l/m2 in 1 Std. -
Di, 02.06. 18:20 keine Meldung -
Di, 02.06. 18:10 keine Meldung -
Di, 02.06. 18:00 0.0 l/m2 in 1 Std. -
Di, 02.06. 17:30 0.0 l/m2 in 1 Std. -
Di, 02.06. 17:00 0.0 l/m2 in 1 Std. -
Di, 02.06. 16:30 0.0 l/m2 in 1 Std. -
Di, 02.06. 16:00 0.0 l/m2 in 1 Std. -
Ortszeit Stärke Spitze Richtung
km/h Bft. km/h Grad Sektor
Di, 02.06. 14:00 24 4 39 330° NW
Di, 02.06. 8:00 6 1 11 310° NW
Di, 02.06. 2:00 4 1 22 360° N
Mo, 01.06. 20:00 18 3 43 30° NO
Mo, 01.06. 14:00 19 3 31 20° N
Mo, 01.06. 8:00 14 3 25 40° NO
Mo, 01.06. 2:00 14 3 40 20° N
So, 31.05. 20:00 22 4 50 20° N
Ortszeit Stärke Spitze Richtung
km/h Bft. km/h Grad Sektor
Di, 02.06. 19:00 17 3 37 20° N
Di, 02.06. 18:50 17 3 - 20° N
Di, 02.06. 18:40 18 3 - 20° N
Di, 02.06. 18:30 22 4 37 350° N
Di, 02.06. 18:20 22 4 - 350° N
Di, 02.06. 18:10 22 4 - 350° N
Di, 02.06. 18:00 28 4 44 350° N
Di, 02.06. 17:30 25 4 43 350° N
Di, 02.06. 17:00 24 4 43 360° N
Di, 02.06. 16:30 26 4 39 350° N
Di, 02.06. 16:00 25 4 43 350° N
Ortszeit Untergrenze Bedeckung Gattung
total tief tief mittel hoch
Di, 02.06. 14:00 - 0/8 0/8 - - -
Di, 02.06. 8:00 - 0/8 0/8 - - -
Di, 02.06. 2:00 - 0/8 0/8 - - -
Mo, 01.06. 20:00 - 0/8 0/8 - - -
Mo, 01.06. 14:00 - 0/8 0/8 - - -
Mo, 01.06. 8:00 - 0/8 0/8 - - -
Mo, 01.06. 2:00 - 0/8 0/8 - - -
So, 31.05. 20:00 - 0/8 0/8 - - -
Ortszeit Bedeckungsgrad in Achtel und Wolkenuntergrenze
Di, 02.06. 19:00 2(3600m)
Di, 02.06. 18:50 2(3600m)
Di, 02.06. 18:40 4(3600m)
Di, 02.06. 18:30 7(3600m)
Di, 02.06. 18:20 7(3600m)
Di, 02.06. 18:10 7(3600m)
Di, 02.06. 18:00 6(3600m)
Di, 02.06. 17:30 2(3900m)
Di, 02.06. 17:00 1(2700m)
Di, 02.06. 16:30 4(2700m) 5(3300m)
Di, 02.06. 16:00 keine Wolken
Ortszeit Luftdruck NN (hPa) Tendenz (hPa in 3 Std.)
Di, 02.06. 14:00 1016 - 2,3
Di, 02.06. 8:00 1020 - 1,0
Di, 02.06. 2:00 1023 - 1,0
Mo, 01.06. 20:00 1023 - 0,6
Mo, 01.06. 14:00 1025 - 0,5
Mo, 01.06. 8:00 1025 + 0,8
Mo, 01.06. 2:00 1025 + 0,6
So, 31.05. 20:00 1023 + 0,5
Ortszeit Luftdruck NN (hPa) Tendenz (hPa in 3 Std.)
Di, 02.06. 19:00 1013 - 1,7
Di, 02.06. 18:50 1013 keine Meldung
Di, 02.06. 18:40 1013 keine Meldung
Di, 02.06. 18:30 1013 - 1,9
Di, 02.06. 18:20 1013 keine Meldung
Di, 02.06. 18:10 1013 keine Meldung
Di, 02.06. 18:00 1013 - 2,0
Di, 02.06. 17:30 1013 - 2,3
Di, 02.06. 17:00 1014 - 2,3
Di, 02.06. 16:30 1014 - 2,3
Di, 02.06. 16:00 1014 - 2,4
Ortszeit Schneehöhe (cm)
Di, 02.06. 14:00 -
Di, 02.06. 8:00 -
Di, 02.06. 2:00 -
Mo, 01.06. 20:00 -
Mo, 01.06. 14:00 -
Mo, 01.06. 8:00 -
Mo, 01.06. 2:00 -
So, 31.05. 20:00 -
Ortszeit Schneehöhe (cm)
Di, 02.06. 19:00 -
Di, 02.06. 18:50 -
Di, 02.06. 18:40 -
Di, 02.06. 18:30 -
Di, 02.06. 18:20 -
Di, 02.06. 18:10 -
Di, 02.06. 18:00 -
Di, 02.06. 17:30 -
Di, 02.06. 17:00 -
Di, 02.06. 16:30 -
Di, 02.06. 16:00 -
Link zu dieser Seite / Seite empfehlen

Das Wetter in ...